createdAt,value
2017-01-04T00:00:11.215Z,44.99
2017-01-04T00:01:20.294Z,45.08
2017-01-04T00:02:28.986Z,44.89
2017-01-04T00:03:38.447Z,45.08
2017-01-04T00:04:47.127Z,44.89
2017-01-04T00:05:55.836Z,45.18
2017-01-04T00:07:04.916Z,45.47
2017-01-04T00:08:14.399Z,44.99
2017-01-04T00:09:23.473Z,45.18
2017-01-04T00:10:32.905Z,45.08
2017-01-04T00:11:41.596Z,45.18
2017-01-04T00:12:50.663Z,45.08
2017-01-04T00:14:00.127Z,45.18
2017-01-04T00:15:09.207Z,45.37
2017-01-04T00:16:19.361Z,44.99
2017-01-04T00:17:29.211Z,45.37
2017-01-04T00:18:39.457Z,45.47
2017-01-04T00:19:48.140Z,45.66
2017-01-04T00:20:56.819Z,45.66
2017-01-04T00:22:06.003Z,45.66
2017-01-04T00:23:15.452Z,45.47
2017-01-04T00:24:24.155Z,45.47
2017-01-04T00:25:33.233Z,45.47
2017-01-04T00:26:42.317Z,45.47
2017-01-04T00:27:51.696Z,45.47
2017-01-04T00:29:00.391Z,45.47
2017-01-04T00:30:09.910Z,45.47
2017-01-04T00:31:18.595Z,45.28
2017-01-04T00:32:27.672Z,45.76
2017-01-04T00:33:37.437Z,45.66
2017-01-04T00:34:46.109Z,45.95
2017-01-04T00:35:55.183Z,45.76
2017-01-04T00:37:04.254Z,45.95
2017-01-04T00:38:13.338Z,45.85
2017-01-04T00:39:22.408Z,45.56
2017-01-04T00:40:31.896Z,45.95
2017-01-04T00:41:41.753Z,45.85
2017-01-04T00:42:50.825Z,46.04
2017-01-04T00:43:59.899Z,46.04
2017-01-04T00:45:09.670Z,46.43
2017-01-04T00:46:18.739Z,46.43
2017-01-04T00:47:28.194Z,46.33
2017-01-04T00:48:36.893Z,45.95
2017-01-04T00:49:45.963Z,46.23
2017-01-04T00:50:55.201Z,46.23
2017-01-04T00:52:04.273Z,46.14
2017-01-04T00:53:13.341Z,46.23
2017-01-04T00:54:22.403Z,46.43
2017-01-04T00:55:31.120Z,46.53
2017-01-04T00:56:40.611Z,46.43
2017-01-04T00:57:50.060Z,46.23
2017-01-04T00:58:59.139Z,46.43
2017-01-04T01:00:08.597Z,46.14
2017-01-04T01:01:17.276Z,46.53
2017-01-04T01:02:26.368Z,46.43
2017-01-04T01:03:35.444Z,46.43
2017-01-04T01:04:45.286Z,46.62
2017-01-04T01:05:54.381Z,46.53
2017-01-04T01:07:03.131Z,46.43
2017-01-04T01:08:12.173Z,46.43
2017-01-04T01:09:20.854Z,46.53
2017-01-04T01:10:29.546Z,46.33
2017-01-04T01:11:38.673Z,46.53
2017-01-04T01:12:48.133Z,47.3
2017-01-04T01:13:57.773Z,47
2017-01-04T01:15:06.853Z,47.1
2017-01-04T01:16:15.927Z,47.2
2017-01-04T01:17:26.181Z,47.2
2017-01-04T01:18:35.251Z,46.91
2017-01-04T01:19:44.111Z,46.81
2017-01-04T01:20:53.192Z,47
2017-01-04T01:22:02.288Z,46.91
2017-01-04T01:23:11.417Z,47.2
2017-01-04T01:24:20.114Z,47.1
2017-01-04T01:25:29.929Z,47.1
2017-01-04T01:26:38.624Z,47
2017-01-04T01:27:47.315Z,46.91
2017-01-04T01:28:56.119Z,47.1
2017-01-04T01:30:06.266Z,47.1
2017-01-04T01:31:16.486Z,47
2017-01-04T01:32:25.170Z,47
2017-01-04T01:33:33.843Z,47
2017-01-04T01:34:43.712Z,47.2
2017-01-04T01:35:52.781Z,47.39
2017-01-04T01:37:02.149Z,47.2
2017-01-04T01:38:10.828Z,47.1
2017-01-04T01:39:19.893Z,47
2017-01-04T01:40:30.132Z,47.49
2017-01-04T01:41:39.206Z,47.58
2017-01-04T01:42:48.056Z,47.58
2017-01-04T01:43:57.517Z,47.49
2017-01-04T01:45:06.597Z,47.39
2017-01-04T01:46:15.676Z,47.39
2017-01-04T01:47:24.363Z,47.58
2017-01-04T01:48:33.142Z,47.58
2017-01-04T01:49:41.832Z,47.77
2017-01-04T01:50:51.295Z,48.25
2017-01-04T01:51:59.979Z,48.16
2017-01-04T01:53:08.674Z,48.07
2017-01-04T01:54:17.885Z,48.16
2017-01-04T01:55:26.955Z,48.16
2017-01-04T01:56:35.638Z,48.16
2017-01-04T01:57:44.710Z,47.87
2017-01-04T01:58:54.174Z,47.97
2017-01-04T02:00:03.545Z,48.07
2017-01-04T02:01:12.643Z,48.25
2017-01-04T02:02:21.348Z,48.25
2017-01-04T02:03:30.806Z,48.35
2017-01-04T02:04:39.872Z,48.07
2017-01-04T02:05:49.494Z,48.25
2017-01-04T02:06:59.344Z,48.35
2017-01-04T02:08:08.819Z,48.07
2017-01-04T02:09:17.496Z,48.16
2017-01-04T02:10:26.592Z,48.45
2017-01-04T02:11:36.560Z,48.45
2017-01-04T02:12:45.653Z,48.45
2017-01-04T02:13:54.737Z,48.25
2017-01-04T02:15:03.801Z,48.45
2017-01-04T02:16:12.893Z,48.45
2017-01-04T02:17:22.655Z,48.25
2017-01-04T02:18:31.334Z,48.35
2017-01-04T02:19:40.421Z,48.35
2017-01-04T02:20:49.507Z,48.35
2017-01-04T02:21:58.982Z,48.25
2017-01-04T02:23:08.618Z,48.35
2017-01-04T02:24:18.083Z,48.64
2017-01-04T02:25:26.766Z,48.74
2017-01-04T02:26:35.842Z,48.64
2017-01-04T02:27:45.316Z,48.64
2017-01-04T02:28:54.388Z,48.74
2017-01-04T02:30:03.880Z,48.64
2017-01-04T02:31:12.562Z,48.64
2017-01-04T02:32:22.018Z,48.54
2017-01-04T02:33:31.479Z,48.64
2017-01-04T02:34:41.515Z,48.74
2017-01-04T02:35:50.597Z,48.54
2017-01-04T02:36:59.683Z,48.25
2017-01-04T02:38:08.755Z,48.35
2017-01-04T02:39:17.427Z,48.54
2017-01-04T02:40:26.886Z,48.35
2017-01-04T02:41:35.581Z,49.02
2017-01-04T02:42:45.037Z,48.64
2017-01-04T02:43:53.725Z,48.64
2017-01-04T02:45:02.820Z,48.64
2017-01-04T02:46:12.428Z,48.64
2017-01-04T02:47:21.106Z,48.74
2017-01-04T02:48:30.567Z,48.54
2017-01-04T02:49:39.631Z,48.74
2017-01-04T02:50:49.110Z,48.74
2017-01-04T02:51:58.880Z,48.64
2017-01-04T02:53:08.384Z,48.83
2017-01-04T02:54:17.453Z,48.64
2017-01-04T02:55:26.918Z,49.1
2017-01-04T02:56:35.996Z,48.74
2017-01-04T02:57:44.688Z,48.83
2017-01-04T02:58:53.760Z,48.83
2017-01-04T03:00:02.842Z,48.81
2017-01-04T03:01:13.110Z,48.83
2017-01-04T03:02:22.588Z,48.9
2017-01-04T03:03:31.275Z,48.83
2017-01-04T03:04:40.345Z,49
2017-01-04T03:05:49.427Z,49.02
2017-01-04T03:06:58.893Z,49.22
2017-01-04T03:08:08.744Z,49
2017-01-04T03:09:17.967Z,49.51
2017-01-04T03:10:26.646Z,49.41
2017-01-04T03:11:35.716Z,49.41
2017-01-04T03:12:44.398Z,49.31
2017-01-04T03:13:53.488Z,49.29
2017-01-04T03:15:03.711Z,49.19
2017-01-04T03:16:12.388Z,49.19
2017-01-04T03:17:21.899Z,49.22
2017-01-04T03:18:30.975Z,49.12
2017-01-04T03:19:40.050Z,49.19
2017-01-04T03:20:49.466Z,49.41
2017-01-04T03:21:58.544Z,49.69
2017-01-04T03:23:07.646Z,49.69
2017-01-04T03:24:16.334Z,49.79
2017-01-04T03:25:25.417Z,49.41
2017-01-04T03:26:34.638Z,49.77
2017-01-04T03:27:43.387Z,49.6
2017-01-04T03:28:52.471Z,49.77
2017-01-04T03:30:01.557Z,49.29
2017-01-04T03:31:10.637Z,49.38
2017-01-04T03:32:19.721Z,49.41
2017-01-04T03:33:29.569Z,49.57
2017-01-04T03:34:38.313Z,49.22
2017-01-04T03:35:47.402Z,49.51
2017-01-04T03:36:56.080Z,49.6
2017-01-04T03:38:05.268Z,49.51
2017-01-04T03:39:14.339Z,49.67
2017-01-04T03:40:23.017Z,49.89
2017-01-04T03:41:32.917Z,49.89
2017-01-04T03:42:42.375Z,49.89
2017-01-04T03:43:51.837Z,49.99
2017-01-04T03:45:01.292Z,49.99
2017-01-04T03:46:10.779Z,49.87
2017-01-04T03:47:19.472Z,49.99
2017-01-04T03:48:28.174Z,49.96
2017-01-04T03:49:38.059Z,49.87
2017-01-04T03:50:47.126Z,49.67
2017-01-04T03:51:56.189Z,49.89
2017-01-04T03:53:05.259Z,49.79
2017-01-04T03:54:13.977Z,49.89
2017-01-04T03:55:23.095Z,49.79
2017-01-04T03:56:32.161Z,49.89
2017-01-04T03:57:41.628Z,49.79
2017-01-04T03:58:50.319Z,49.96
2017-01-04T04:00:00.180Z,49.99
2017-01-04T04:01:09.943Z,50.15
2017-01-04T04:02:19.026Z,49.99
2017-01-04T04:03:28.871Z,49.77
2017-01-04T04:04:37.938Z,49.87
2017-01-04T04:05:46.616Z,49.77
2017-01-04T04:06:55.431Z,50.25
2017-01-04T04:08:04.110Z,50.05
2017-01-04T04:09:13.182Z,50.05
2017-01-04T04:10:22.261Z,49.99
2017-01-04T04:11:31.337Z,50.05
2017-01-04T04:12:40.728Z,50.44
2017-01-04T04:13:49.418Z,50.34
2017-01-04T04:14:58.538Z,50.05
2017-01-04T04:16:08.009Z,50.05
2017-01-04T04:17:16.691Z,50.18
2017-01-04T04:18:26.107Z,49.89
2017-01-04T04:19:35.948Z,50.05
2017-01-04T04:20:45.034Z,50.05
2017-01-04T04:21:54.102Z,50.15
2017-01-04T04:23:03.180Z,50.05
2017-01-04T04:24:12.241Z,50.34
2017-01-04T04:25:21.341Z,50.25
2017-01-04T04:26:30.418Z,50.34
2017-01-04T04:27:40.277Z,50.15
2017-01-04T04:28:50.134Z,50.25
2017-01-04T04:29:59.594Z,50.76
2017-01-04T04:31:08.663Z,50.73
2017-01-04T04:32:17.753Z,50.44
2017-01-04T04:33:26.832Z,50.44
2017-01-04T04:34:35.545Z,50.54
2017-01-04T04:35:45.713Z,50.54
2017-01-04T04:36:54.392Z,50.54
2017-01-04T04:38:03.869Z,50.73
2017-01-04T04:39:12.937Z,50.82
2017-01-04T04:40:21.618Z,50.73
2017-01-04T04:41:30.661Z,50.54
2017-01-04T04:42:39.351Z,50.44
2017-01-04T04:43:48.814Z,50.63
2017-01-04T04:44:57.882Z,50.54
2017-01-04T04:46:07.750Z,50.63
2017-01-04T04:47:17.197Z,50.44
2017-01-04T04:48:26.319Z,50.44
2017-01-04T04:49:36.187Z,50.44
2017-01-04T04:50:45.642Z,50.54
2017-01-04T04:51:54.321Z,50.63
2017-01-04T04:53:03.151Z,50.34
2017-01-04T04:54:12.618Z,50.34
2017-01-04T04:55:22.082Z,50.54
2017-01-04T04:56:31.972Z,50.44
2017-01-04T04:57:41.033Z,50.54
2017-01-04T04:58:50.204Z,50.54
2017-01-04T04:59:58.886Z,50.44
2017-01-04T05:01:08.352Z,50.44
2017-01-04T05:02:17.029Z,50.82
2017-01-04T05:03:25.719Z,50.82
2017-01-04T05:04:34.513Z,50.34
2017-01-04T05:05:43.198Z,50.54
2017-01-04T05:06:52.289Z,50.82
2017-01-04T05:08:00.974Z,50.92
2017-01-04T05:09:10.056Z,51.02
2017-01-04T05:10:20.015Z,50.92
2017-01-04T05:11:29.482Z,50.92
2017-01-04T05:12:38.584Z,51.21
2017-01-04T05:13:47.678Z,50.92
2017-01-04T05:14:57.529Z,51.11
2017-01-04T05:16:06.706Z,51.11
2017-01-04T05:17:16.579Z,50.92
2017-01-04T05:18:26.425Z,50.92
2017-01-04T05:19:35.881Z,51.11
2017-01-04T05:20:44.557Z,50.92
2017-01-04T05:21:53.991Z,51.02
2017-01-04T05:23:03.846Z,51.02
2017-01-04T05:24:12.922Z,50.82
2017-01-04T05:25:21.990Z,50.82
2017-01-04T05:26:31.454Z,50.92
2017-01-04T05:27:40.625Z,50.73
2017-01-04T05:28:49.711Z,51.11
2017-01-04T05:29:58.383Z,51.11
2017-01-04T05:31:07.859Z,51.21
2017-01-04T05:32:16.967Z,50.73
2017-01-04T05:33:26.781Z,50.92
2017-01-04T05:34:36.255Z,50.73
2017-01-04T05:35:45.741Z,51.02
2017-01-04T05:36:54.428Z,51.02
2017-01-04T05:38:03.902Z,51.11
2017-01-04T05:39:13.070Z,50.73
2017-01-04T05:40:22.173Z,51.04
2017-01-04T05:41:31.634Z,50.92
2017-01-04T05:42:40.718Z,50.76
2017-01-04T05:43:50.176Z,50.46
2017-01-04T05:44:59.032Z,50.66
2017-01-04T05:46:08.526Z,50.46
2017-01-04T05:47:17.592Z,50.37
2017-01-04T05:48:26.735Z,50.18
2017-01-04T05:49:35.809Z,50.08
2017-01-04T05:50:44.651Z,49.79
2017-01-04T05:51:53.365Z,49.72
2017-01-04T05:53:02.825Z,50.1
2017-01-04T05:54:11.925Z,49.91
2017-01-04T05:55:20.619Z,49.72
2017-01-04T05:56:29.299Z,49.72
2017-01-04T05:57:39.177Z,49.72
2017-01-04T05:58:47.851Z,49.24
2017-01-04T05:59:56.553Z,49.55
2017-01-04T06:01:06.044Z,49.27
2017-01-04T06:02:15.034Z,48.88
2017-01-04T06:03:23.709Z,48.79
2017-01-04T06:04:32.398Z,48.69
2017-01-04T06:05:41.566Z,48.69
2017-01-04T06:06:50.695Z,48.88
2017-01-04T06:07:59.963Z,48.79
2017-01-04T06:09:09.060Z,48.59
2017-01-04T06:10:18.146Z,48.3
2017-01-04T06:11:28.006Z,48.61
2017-01-04T06:12:37.102Z,48.43
2017-01-04T06:13:47.346Z,48.52
2017-01-04T06:14:56.117Z,48.52
2017-01-04T06:16:05.317Z,48.81
2017-01-04T06:17:14.825Z,48.71
2017-01-04T06:18:23.540Z,48.33
2017-01-04T06:19:32.641Z,48.43
2017-01-04T06:20:41.804Z,48.23
2017-01-04T06:21:51.336Z,48.54
2017-01-04T06:23:00.851Z,48.54
2017-01-04T06:24:09.961Z,48.54
2017-01-04T06:25:19.188Z,48.35
2017-01-04T06:26:27.898Z,48.44
2017-01-04T06:27:36.967Z,48.54
2017-01-04T06:28:46.053Z,48.44
2017-01-04T06:29:54.756Z,47.97
2017-01-04T06:31:04.249Z,47.97
2017-01-04T06:32:19.235Z,48.18
2017-01-04T06:33:27.973Z,48.28
2017-01-04T06:34:37.099Z,48.28
2017-01-04T06:35:46.205Z,48.38
2017-01-04T06:36:55.693Z,47.7
2017-01-04T06:38:05.234Z,47.7
2017-01-04T06:39:14.341Z,47.51
2017-01-04T06:40:23.063Z,47.8
2017-01-04T06:41:32.177Z,47.8
2017-01-04T06:42:40.933Z,47.6
2017-01-04T06:43:50.011Z,47.6
2017-01-04T06:44:58.732Z,47.51
2017-01-04T06:46:07.909Z,47.41
2017-01-04T06:47:16.976Z,47.6
2017-01-04T06:48:26.134Z,47.7
2017-01-04T06:49:35.724Z,47.24
2017-01-04T06:50:44.412Z,47.44
2017-01-04T06:51:53.485Z,47.24
2017-01-04T06:53:02.952Z,47.72
2017-01-04T06:54:12.050Z,47.51
2017-01-04T06:55:21.126Z,47.63
2017-01-04T06:56:30.247Z,47.82
2017-01-04T06:57:38.928Z,48.4
2017-01-04T06:58:48.414Z,48.4
2017-01-04T06:59:57.891Z,48.01
2017-01-04T07:01:06.961Z,48.4
2017-01-04T07:02:16.447Z,48.57
2017-01-04T07:03:25.552Z,48.28
2017-01-04T07:04:34.694Z,48.57
2017-01-04T07:05:43.767Z,48.38
2017-01-04T07:06:52.449Z,48.47
2017-01-04T07:08:01.552Z,48.38
2017-01-04T07:09:10.264Z,48.86
2017-01-04T07:10:19.337Z,48.66
2017-01-04T07:11:28.873Z,48.95
2017-01-04T07:12:38.005Z,48.47
2017-01-04T07:13:47.077Z,48.76
2017-01-04T07:14:56.538Z,48.76
2017-01-04T07:16:05.245Z,48.86
2017-01-04T07:17:13.921Z,49.05
2017-01-04T07:18:22.992Z,48.76
2017-01-04T07:19:32.480Z,49.24
2017-01-04T07:20:41.616Z,49.05
2017-01-04T07:21:51.478Z,49.05
2017-01-04T07:23:01.346Z,49.15
2017-01-04T07:24:10.461Z,49.43
2017-01-04T07:25:20.338Z,49.32
2017-01-04T07:26:29.864Z,49.22
2017-01-04T07:27:39.350Z,49.89
2017-01-04T07:28:48.821Z,49.51
2017-01-04T07:29:58.716Z,49.79
2017-01-04T07:31:07.426Z,50.09
2017-01-04T07:32:16.913Z,49.99
2017-01-04T07:33:26.018Z,49.99
2017-01-04T07:34:35.097Z,49.89
2017-01-04T07:35:44.604Z,50.27
2017-01-04T07:36:53.308Z,50.09
2017-01-04T07:38:02.388Z,50.09
2017-01-04T07:39:11.476Z,50.27
2017-01-04T07:40:21.330Z,50.27
2017-01-04T07:41:30.421Z,50.18
2017-01-04T07:42:39.528Z,50.54
2017-01-04T07:43:48.997Z,50.83
2017-01-04T07:44:58.753Z,50.63
2017-01-04T07:46:07.865Z,50.54
2017-01-04T07:47:16.949Z,50.63
2017-01-04T07:48:26.039Z,50.45
2017-01-04T07:49:34.761Z,50.63
2017-01-04T07:50:43.457Z,50.45
2017-01-04T07:51:53.386Z,50.83
2017-01-04T07:53:02.865Z,51.12
2017-01-04T07:54:12.742Z,51.21
2017-01-04T07:55:21.434Z,51.02
2017-01-04T07:56:30.133Z,51.12
2017-01-04T07:57:39.989Z,50.93
2017-01-04T07:58:49.476Z,51.12
2017-01-04T07:59:58.174Z,51.02
2017-01-04T08:01:07.275Z,51.02
2017-01-04T08:02:17.542Z,51.12
2017-01-04T08:03:26.684Z,51.41
2017-01-04T08:04:35.783Z,51.12
2017-01-04T08:05:44.869Z,51.38
2017-01-04T08:06:53.965Z,51.67
2017-01-04T08:08:03.045Z,51.67
2017-01-04T08:09:12.149Z,51.57
2017-01-04T08:10:20.844Z,51.38
2017-01-04T08:11:29.541Z,51.67
2017-01-04T08:12:38.240Z,51.86
2017-01-04T08:13:48.132Z,51.57
2017-01-04T08:14:57.600Z,51.67
2017-01-04T08:16:06.314Z,51.48
2017-01-04T08:17:15.391Z,51.29
2017-01-04T08:18:24.467Z,51.76
2017-01-04T08:19:33.968Z,51.57
2017-01-04T08:20:43.435Z,51.67
2017-01-04T08:21:52.503Z,51.86
2017-01-04T08:23:02.008Z,52.15
2017-01-04T08:24:10.697Z,52.06
2017-01-04T08:25:20.557Z,52.06
2017-01-04T08:26:29.300Z,51.96
2017-01-04T08:27:38.376Z,52.44
2017-01-04T08:28:47.867Z,52.54
2017-01-04T08:29:56.952Z,52.54
2017-01-04T08:31:05.675Z,52.34
2017-01-04T08:32:14.368Z,52.44
2017-01-04T08:33:23.449Z,52.25
2017-01-04T08:34:32.551Z,52.25
2017-01-04T08:35:42.065Z,52.34
2017-01-04T08:36:51.578Z,52.34
2017-01-04T08:38:00.259Z,52.15
2017-01-04T08:39:09.732Z,52.54
2017-01-04T08:40:18.417Z,52.54
2017-01-04T08:41:27.123Z,52.63
2017-01-04T08:42:36.620Z,52.54
2017-01-04T08:43:46.504Z,52.34
2017-01-04T08:44:55.607Z,52.44
2017-01-04T08:46:04.716Z,52.63
2017-01-04T08:47:13.946Z,52.44
2017-01-04T08:48:23.423Z,52.63
2017-01-04T08:49:32.591Z,52.34
2017-01-04T08:50:41.308Z,52.34
2017-01-04T08:51:49.998Z,52.8
2017-01-04T08:52:58.728Z,52.54
2017-01-04T08:54:07.939Z,52.73
2017-01-04T08:55:16.786Z,52.73
2017-01-04T08:56:25.867Z,52.83
2017-01-04T08:57:34.579Z,53.19
2017-01-04T08:58:43.659Z,52.92
2017-01-04T08:59:53.522Z,53.19
2017-01-04T09:01:03.395Z,53.09
2017-01-04T09:02:12.473Z,53.31
2017-01-04T09:03:21.972Z,53.11
2017-01-04T09:04:31.439Z,53.11
2017-01-04T09:05:40.908Z,53.11
2017-01-04T09:06:50.788Z,52.92
2017-01-04T09:07:59.886Z,53.09
2017-01-04T09:09:08.573Z,53.09
2017-01-04T09:10:18.051Z,52.92
2017-01-04T09:11:27.120Z,52.92
2017-01-04T09:12:35.855Z,52.73
2017-01-04T09:13:45.314Z,52.73
2017-01-04T09:14:55.190Z,52.73
2017-01-04T09:16:03.870Z,52.89
2017-01-04T09:17:12.563Z,52.92
2017-01-04T09:18:22.034Z,53.02
2017-01-04T09:19:31.599Z,53.02
2017-01-04T09:20:40.707Z,53.11
2017-01-04T09:21:49.797Z,52.89
2017-01-04T09:22:58.888Z,53.02
2017-01-04T09:24:07.582Z,52.83
2017-01-04T09:25:16.675Z,52.83
2017-01-04T09:26:25.789Z,52.89
2017-01-04T09:27:34.875Z,53.02
2017-01-04T09:28:43.563Z,52.92
2017-01-04T09:29:53.029Z,52.89
2017-01-04T09:31:02.102Z,52.83
2017-01-04T09:32:11.189Z,52.92
2017-01-04T09:33:19.880Z,52.83
2017-01-04T09:34:28.960Z,52.92
2017-01-04T09:35:37.644Z,52.92
2017-01-04T09:36:46.721Z,52.92
2017-01-04T09:37:55.448Z,52.92
2017-01-04T09:39:04.556Z,52.92
2017-01-04T09:40:13.626Z,52.92
2017-01-04T09:41:22.316Z,52.83
2017-01-04T09:42:31.383Z,52.92
2017-01-04T09:43:40.471Z,53.11
2017-01-04T09:44:49.542Z,53.02
2017-01-04T09:45:59.010Z,53.21
2017-01-04T09:47:07.699Z,53.02
2017-01-04T09:48:16.780Z,53.11
2017-01-04T09:49:25.474Z,53.11
2017-01-04T09:50:34.583Z,53.31
2017-01-04T09:51:43.695Z,53.4
2017-01-04T09:52:52.389Z,53.02
2017-01-04T09:54:01.468Z,53.4
2017-01-04T09:55:10.553Z,53.02
2017-01-04T09:56:20.058Z,53.31
2017-01-04T09:57:29.152Z,53.4
2017-01-04T09:58:38.232Z,53.21
2017-01-04T09:59:47.697Z,53.02
2017-01-04T10:00:56.403Z,53.02
2017-01-04T10:02:05.126Z,53.11
2017-01-04T10:03:15.374Z,53.11
2017-01-04T10:04:24.066Z,53.21
2017-01-04T10:05:33.552Z,53.21
2017-01-04T10:06:42.628Z,53.21
2017-01-04T10:07:51.727Z,53.21
2017-01-04T10:09:00.413Z,53.11
2017-01-04T10:10:09.515Z,53.11
2017-01-04T10:11:18.249Z,52.92
2017-01-04T10:12:27.719Z,53.02
2017-01-04T10:13:36.831Z,52.92
2017-01-04T10:14:46.696Z,53.59
2017-01-04T10:15:55.383Z,53.02
2017-01-04T10:17:04.895Z,53.21
2017-01-04T10:18:13.586Z,52.83
2017-01-04T10:19:23.446Z,53.4
2017-01-04T10:20:32.137Z,53.4
2017-01-04T10:21:41.497Z,53.11
2017-01-04T10:22:50.598Z,53.02
2017-01-04T10:24:00.064Z,52.92
2017-01-04T10:25:09.134Z,53.88
2017-01-04T10:26:17.822Z,53.21
2017-01-04T10:27:26.896Z,53.5
2017-01-04T10:28:36.362Z,54.08
2017-01-04T10:29:45.838Z,53.86
2017-01-04T10:30:55.309Z,53.78
2017-01-04T10:32:04.802Z,53.88
2017-01-04T10:33:15.072Z,54.14
2017-01-04T10:34:23.790Z,53.98
2017-01-04T10:35:32.897Z,54.08
2017-01-04T10:36:41.581Z,54.05
2017-01-04T10:37:50.652Z,53.78
2017-01-04T10:39:00.128Z,54.08
2017-01-04T10:40:09.626Z,53.98
2017-01-04T10:41:19.538Z,53.96
2017-01-04T10:42:28.224Z,53.76
2017-01-04T10:43:37.307Z,54.17
2017-01-04T10:44:45.996Z,53.76
2017-01-04T10:45:55.067Z,53.78
2017-01-04T10:47:03.779Z,53.98
2017-01-04T10:48:12.864Z,54.17
2017-01-04T10:49:21.596Z,53.88
2017-01-04T10:50:30.721Z,54.08
2017-01-04T10:51:39.894Z,54.08
2017-01-04T10:52:48.991Z,54.05
2017-01-04T10:53:57.717Z,54.08
2017-01-04T10:55:06.419Z,53.76
2017-01-04T10:56:15.492Z,53.78
2017-01-04T10:57:24.182Z,53.98
2017-01-04T10:58:33.271Z,54.27
2017-01-04T10:59:42.730Z,53.98
2017-01-04T11:00:51.817Z,53.96
2017-01-04T11:02:00.966Z,53.98
2017-01-04T11:03:10.057Z,54.08
2017-01-04T11:04:19.136Z,54.27
2017-01-04T11:05:29.062Z,54.46
2017-01-04T11:06:38.560Z,54.36
2017-01-04T11:07:47.648Z,53.66
2017-01-04T11:08:57.120Z,53.86
2017-01-04T11:10:06.970Z,54.36
2017-01-04T11:11:16.439Z,53.86
2017-01-04T11:12:25.213Z,54.27
2017-01-04T11:13:34.703Z,54.14
2017-01-04T11:14:44.963Z,54.27
2017-01-04T11:15:54.435Z,54.14
2017-01-04T11:17:03.908Z,54.17
2017-01-04T11:18:12.608Z,54.46
2017-01-04T11:19:21.697Z,54.27
2017-01-04T11:20:30.799Z,54.27
2017-01-04T11:21:39.880Z,54.17
2017-01-04T11:22:49.393Z,54.27
2017-01-04T11:23:58.086Z,54.34
2017-01-04T11:25:07.197Z,54.46
2017-01-04T11:26:16.275Z,54.46
2017-01-04T11:27:24.979Z,54.53
2017-01-04T11:28:34.055Z,54.82
2017-01-04T11:29:42.745Z,54.56
2017-01-04T11:30:52.174Z,54.85
2017-01-04T11:32:01.648Z,54.72
2017-01-04T11:33:11.149Z,54.53
2017-01-04T11:34:20.220Z,54.63
2017-01-04T11:35:29.311Z,54.75
2017-01-04T11:36:39.196Z,54.34
2017-01-04T11:37:48.278Z,54.72
2017-01-04T11:38:56.976Z,54.72
2017-01-04T11:40:06.135Z,54.72
2017-01-04T11:41:15.643Z,54.82
2017-01-04T11:42:24.327Z,54.56
2017-01-04T11:43:33.018Z,54.36
2017-01-04T11:44:42.097Z,54.63
2017-01-04T11:45:51.175Z,54.63
2017-01-04T11:46:59.885Z,54.72
2017-01-04T11:48:08.574Z,54.53
2017-01-04T11:49:17.658Z,54.82
2017-01-04T11:50:27.130Z,54.91
2017-01-04T11:51:36.650Z,54.91
2017-01-04T11:52:45.377Z,54.72
2017-01-04T11:53:54.466Z,54.82
2017-01-04T11:55:03.970Z,55.01
2017-01-04T11:56:13.087Z,54.94
2017-01-04T11:57:21.784Z,54.75
2017-01-04T11:58:31.665Z,54.82
2017-01-04T11:59:41.521Z,54.91
2017-01-04T12:00:50.232Z,55.01
2017-01-04T12:01:59.311Z,55.11
2017-01-04T12:03:08.812Z,55.01
2017-01-04T12:04:17.535Z,54.82
2017-01-04T12:05:26.389Z,55.2
2017-01-04T12:06:35.087Z,55.2
2017-01-04T12:07:44.180Z,55.3
2017-01-04T12:08:53.269Z,55.2
2017-01-04T12:10:02.769Z,54.91
2017-01-04T12:11:12.265Z,54.91
2017-01-04T12:12:21.808Z,55.01
2017-01-04T12:13:31.706Z,55.4
2017-01-04T12:14:40.411Z,55.2
2017-01-04T12:15:50.276Z,55.49
2017-01-04T12:17:00.135Z,55.49
2017-01-04T12:18:09.602Z,55.68
2017-01-04T12:19:18.675Z,55.88
2017-01-04T12:20:27.770Z,55.49
2017-01-04T12:21:37.250Z,55.49
2017-01-04T12:22:45.951Z,55.49
2017-01-04T12:23:55.833Z,55.49
2017-01-04T12:25:06.095Z,55.4
2017-01-04T12:26:15.572Z,55.4
2017-01-04T12:27:25.039Z,55.59
2017-01-04T12:28:34.517Z,55.59
2017-01-04T12:29:44.405Z,55.59
2017-01-04T12:30:53.488Z,55.59
2017-01-04T12:32:02.172Z,55.78
2017-01-04T12:33:10.884Z,55.49
2017-01-04T12:34:20.402Z,55.49
2017-01-04T12:35:29.498Z,55.59
2017-01-04T12:36:39.407Z,55.59
2017-01-04T12:37:48.544Z,55.59
2017-01-04T12:38:57.258Z,55.59
2017-01-04T12:40:06.360Z,55.4
2017-01-04T12:41:15.825Z,55.59
2017-01-04T12:42:25.294Z,55.4
2017-01-04T12:43:34.368Z,55.2
2017-01-04T12:44:43.472Z,55.3
2017-01-04T12:45:52.623Z,55.68
2017-01-04T12:47:01.743Z,55.78
2017-01-04T12:48:10.465Z,55.68
2017-01-04T12:49:19.932Z,56.07
2017-01-04T12:50:28.633Z,56.07
2017-01-04T12:51:38.124Z,55.78
2017-01-04T12:52:46.841Z,55.88
2017-01-04T12:53:55.936Z,55.98
2017-01-04T12:55:05.027Z,55.68
2017-01-04T12:56:14.514Z,55.88
2017-01-04T12:57:23.205Z,56.07
2017-01-04T12:58:32.315Z,55.68
2017-01-04T12:59:41.406Z,56.07
2017-01-04T13:00:50.532Z,55.88
2017-01-04T13:01:59.233Z,55.78
2017-01-04T13:03:08.307Z,55.78
2017-01-04T13:04:17.387Z,55.88
2017-01-04T13:05:26.475Z,56.07
2017-01-04T13:06:35.549Z,56.07
2017-01-04T13:07:44.641Z,55.88
2017-01-04T13:08:54.122Z,56.65
2017-01-04T13:10:02.900Z,56.26
2017-01-04T13:11:11.597Z,56.45
2017-01-04T13:12:21.092Z,56.45
2017-01-04T13:13:29.794Z,56.45
2017-01-04T13:14:38.895Z,56.45
2017-01-04T13:15:48.405Z,56.16
2017-01-04T13:16:57.093Z,56.26
2017-01-04T13:18:06.569Z,56.26
2017-01-04T13:19:15.646Z,56.16
2017-01-04T13:20:25.514Z,56.26
2017-01-04T13:21:34.603Z,56.16
2017-01-04T13:22:44.076Z,56.26
2017-01-04T13:23:52.771Z,56.45
2017-01-04T13:25:01.473Z,56.45
2017-01-04T13:26:10.953Z,56.55
2017-01-04T13:27:20.046Z,56.65
2017-01-04T13:28:29.127Z,56.55
2017-01-04T13:29:38.702Z,56.45
2017-01-04T13:30:47.409Z,56.36
2017-01-04T13:31:57.269Z,56.55
2017-01-04T13:33:06.825Z,56.45
2017-01-04T13:34:15.910Z,56.55
2017-01-04T13:35:25.008Z,56.07
2017-01-04T13:36:34.086Z,56.45
2017-01-04T13:37:43.554Z,56.55
2017-01-04T13:38:52.660Z,56.36
2017-01-04T13:40:01.772Z,56.36
2017-01-04T13:41:11.233Z,56.26
2017-01-04T13:42:19.967Z,56.45
2017-01-04T13:43:28.658Z,56.36
2017-01-04T13:44:37.358Z,56.45
2017-01-04T13:45:46.486Z,56.65
2017-01-04T13:46:55.211Z,56.55
2017-01-04T13:48:04.719Z,56.74
2017-01-04T13:49:14.182Z,56.84
2017-01-04T13:50:22.881Z,56.93
2017-01-04T13:51:32.019Z,57.03
2017-01-04T13:52:41.890Z,57.03
2017-01-04T13:53:50.582Z,56.84
2017-01-04T13:54:59.297Z,57.13
2017-01-04T13:56:08.790Z,57.03
2017-01-04T13:57:17.513Z,56.84
2017-01-04T13:58:26.605Z,57.03
2017-01-04T13:59:35.693Z,56.84
2017-01-04T14:00:45.570Z,57.03
2017-01-04T14:01:54.330Z,57.03
2017-01-04T14:03:03.450Z,57
2017-01-04T14:04:12.143Z,56.93
2017-01-04T14:05:21.222Z,56.93
2017-01-04T14:06:30.307Z,57.03
2017-01-04T14:07:39.423Z,56.74
2017-01-04T14:08:48.529Z,56.71
2017-01-04T14:09:57.263Z,56.84
2017-01-04T14:11:05.963Z,56.74
2017-01-04T14:12:15.446Z,56.91
2017-01-04T14:13:24.932Z,56.71
2017-01-04T14:14:33.624Z,56.81
2017-01-04T14:15:43.084Z,56.84
2017-01-04T14:16:52.557Z,57.1
2017-01-04T14:18:01.641Z,57.1
2017-01-04T14:19:10.737Z,57.13
2017-01-04T14:20:20.606Z,57.1
2017-01-04T14:21:29.708Z,56.91
2017-01-04T14:22:38.811Z,57.03
2017-01-04T14:23:48.372Z,57.1
2017-01-04T14:24:57.085Z,57.03
2017-01-04T14:26:06.938Z,57.03
2017-01-04T14:27:16.045Z,57.03
2017-01-04T14:28:25.139Z,57.1
2017-01-04T14:29:34.016Z,57.13
2017-01-04T14:30:43.172Z,57.03
2017-01-04T14:31:52.313Z,57.2
2017-01-04T14:33:02.207Z,57.22
2017-01-04T14:34:10.944Z,57.39
2017-01-04T14:35:19.695Z,57.42
2017-01-04T14:36:28.422Z,57.48
2017-01-04T14:37:37.208Z,57.42
2017-01-04T14:38:46.475Z,57.2
2017-01-04T14:39:56.065Z,57.13
2017-01-04T14:41:05.545Z,57.48
2017-01-04T14:42:15.430Z,57.2
2017-01-04T14:43:24.901Z,57.58
2017-01-04T14:44:33.977Z,57.39
2017-01-04T14:45:43.448Z,57.42
2017-01-04T14:46:52.525Z,57.48
2017-01-04T14:48:02.389Z,57.58
2017-01-04T14:49:11.468Z,57.58
2017-01-04T14:50:20.546Z,57.39
2017-01-04T14:51:29.305Z,57.42
2017-01-04T14:52:38.010Z,57.39
2017-01-04T14:53:46.712Z,57.9